sensor_id;sensor_type;location;lat;lon;timestamp;P1;durP1;ratioP1;P2;durP2;ratioP2
8139;SDS011;4111;50.972;7.072;2023-04-15T00:00:54;4.00;;;3.50;;
8139;SDS011;4111;50.972;7.072;2023-04-15T00:03:21;7.23;;;4.00;;
8139;SDS011;4111;50.972;7.072;2023-04-15T00:05:48;4.77;;;4.03;;
8139;SDS011;4111;50.972;7.072;2023-04-15T00:08:14;8.53;;;3.90;;
8139;SDS011;4111;50.972;7.072;2023-04-15T00:10:41;5.30;;;2.90;;
8139;SDS011;4111;50.972;7.072;2023-04-15T00:13:09;8.97;;;3.50;;
8139;SDS011;4111;50.972;7.072;2023-04-15T00:15:35;5.60;;;3.20;;
8139;SDS011;4111;50.972;7.072;2023-04-15T00:18:02;5.37;;;3.33;;
8139;SDS011;4111;50.972;7.072;2023-04-15T00:20:29;6.37;;;3.00;;
8139;SDS011;4111;50.972;7.072;2023-04-15T00:22:56;5.23;;;2.83;;
8139;SDS011;4111;50.972;7.072;2023-04-15T00:25:24;3.40;;;2.80;;
8139;SDS011;4111;50.972;7.072;2023-04-15T00:27:50;5.77;;;2.93;;
8139;SDS011;4111;50.972;7.072;2023-04-15T00:30:16;3.53;;;2.70;;
8139;SDS011;4111;50.972;7.072;2023-04-15T00:32:44;3.70;;;2.37;;
8139;SDS011;4111;50.972;7.072;2023-04-15T00:35:10;3.57;;;2.37;;
8139;SDS011;4111;50.972;7.072;2023-04-15T00:37:37;4.73;;;2.60;;
8139;SDS011;4111;50.972;7.072;2023-04-15T00:40:03;4.13;;;2.87;;
8139;SDS011;4111;50.972;7.072;2023-04-15T00:42:30;7.07;;;2.53;;
8139;SDS011;4111;50.972;7.072;2023-04-15T00:44:57;5.87;;;2.80;;
8139;SDS011;4111;50.972;7.072;2023-04-15T00:47:23;5.23;;;2.70;;
8139;SDS011;4111;50.972;7.072;2023-04-15T00:49:51;4.53;;;2.80;;
8139;SDS011;4111;50.972;7.072;2023-04-15T00:52:17;5.50;;;2.70;;
8139;SDS011;4111;50.972;7.072;2023-04-15T00:54:44;3.20;;;2.20;;
8139;SDS011;4111;50.972;7.072;2023-04-15T00:57:10;5.17;;;2.87;;
8139;SDS011;4111;50.972;7.072;2023-04-15T00:59:37;3.27;;;2.50;;
8139;SDS011;4111;50.972;7.072;2023-04-15T01:02:03;4.23;;;2.67;;
8139;SDS011;4111;50.972;7.072;2023-04-15T01:04:30;4.40;;;2.50;;
8139;SDS011;4111;50.972;7.072;2023-04-15T01:06:57;3.83;;;2.70;;
8139;SDS011;4111;50.972;7.072;2023-04-15T01:09:24;4.60;;;2.67;;
8139;SDS011;4111;50.972;7.072;2023-04-15T01:11:50;2.73;;;2.50;;
8139;SDS011;4111;50.972;7.072;2023-04-15T01:14:17;4.10;;;2.40;;
8139;SDS011;4111;50.972;7.072;2023-04-15T01:16:44;4.97;;;2.63;;
8139;SDS011;4111;50.972;7.072;2023-04-15T01:19:12;5.00;;;2.40;;
8139;SDS011;4111;50.972;7.072;2023-04-15T01:21:41;2.87;;;2.43;;
8139;SDS011;4111;50.972;7.072;2023-04-15T01:24:08;5.93;;;3.00;;
8139;SDS011;4111;50.972;7.072;2023-04-15T01:26:37;5.13;;;2.50;;
8139;SDS011;4111;50.972;7.072;2023-04-15T01:29:03;4.60;;;2.77;;
8139;SDS011;4111;50.972;7.072;2023-04-15T01:31:29;2.80;;;2.30;;
8139;SDS011;4111;50.972;7.072;2023-04-15T01:33:56;4.73;;;2.33;;
8139;SDS011;4111;50.972;7.072;2023-04-15T01:36:23;3.57;;;2.53;;
8139;SDS011;4111;50.972;7.072;2023-04-15T01:38:50;4.27;;;2.63;;
8139;SDS011;4111;50.972;7.072;2023-04-15T01:41:20;4.70;;;2.87;;
8139;SDS011;4111;50.972;7.072;2023-04-15T01:43:50;2.83;;;2.40;;
8139;SDS011;4111;50.972;7.072;2023-04-15T01:46:17;4.13;;;2.87;;
8139;SDS011;4111;50.972;7.072;2023-04-15T01:48:44;5.47;;;2.60;;
8139;SDS011;4111;50.972;7.072;2023-04-15T01:51:10;5.13;;;2.47;;
8139;SDS011;4111;50.972;7.072;2023-04-15T01:53:37;4.20;;;2.40;;
8139;SDS011;4111;50.972;7.072;2023-04-15T01:56:03;5.77;;;2.87;;
8139;SDS011;4111;50.972;7.072;2023-04-15T01:58:30;3.70;;;2.27;;
8139;SDS011;4111;50.972;7.072;2023-04-15T02:00:56;4.70;;;2.93;;
8139;SDS011;4111;50.972;7.072;2023-04-15T02:03:23;4.13;;;2.50;;
8139;SDS011;4111;50.972;7.072;2023-04-15T02:05:50;3.87;;;2.40;;
8139;SDS011;4111;50.972;7.072;2023-04-15T02:08:17;3.27;;;2.70;;
8139;SDS011;4111;50.972;7.072;2023-04-15T02:10:43;3.17;;;2.53;;
8139;SDS011;4111;50.972;7.072;2023-04-15T02:13:10;5.60;;;2.53;;
8139;SDS011;4111;50.972;7.072;2023-04-15T02:15:36;4.13;;;2.47;;
8139;SDS011;4111;50.972;7.072;2023-04-15T02:18:03;3.10;;;2.37;;
8139;SDS011;4111;50.972;7.072;2023-04-15T02:20:29;7.77;;;2.63;;
8139;SDS011;4111;50.972;7.072;2023-04-15T02:22:56;4.63;;;2.60;;
8139;SDS011;4111;50.972;7.072;2023-04-15T02:25:22;4.37;;;2.53;;
8139;SDS011;4111;50.972;7.072;2023-04-15T02:27:49;7.10;;;2.63;;
8139;SDS011;4111;50.972;7.072;2023-04-15T02:30:15;7.17;;;2.73;;
8139;SDS011;4111;50.972;7.072;2023-04-15T02:32:42;3.03;;;2.50;;
8139;SDS011;4111;50.972;7.072;2023-04-15T02:35:10;7.17;;;2.30;;
8139;SDS011;4111;50.972;7.072;2023-04-15T02:37:36;5.33;;;2.63;;
8139;SDS011;4111;50.972;7.072;2023-04-15T02:40:08;5.17;;;2.47;;
8139;SDS011;4111;50.972;7.072;2023-04-15T02:42:39;5.00;;;2.43;;
8139;SDS011;4111;50.972;7.072;2023-04-15T02:45:05;4.00;;;2.60;;
8139;SDS011;4111;50.972;7.072;2023-04-15T02:47:33;3.80;;;2.30;;
8139;SDS011;4111;50.972;7.072;2023-04-15T02:50:02;5.57;;;2.47;;
8139;SDS011;4111;50.972;7.072;2023-04-15T02:52:28;3.40;;;2.03;;
8139;SDS011;4111;50.972;7.072;2023-04-15T02:54:55;4.60;;;2.30;;
8139;SDS011;4111;50.972;7.072;2023-04-15T02:57:26;3.00;;;2.70;;
8139;SDS011;4111;50.972;7.072;2023-04-15T02:59:54;5.10;;;2.37;;
8139;SDS011;4111;50.972;7.072;2023-04-15T03:02:20;5.63;;;2.63;;
8139;SDS011;4111;50.972;7.072;2023-04-15T03:04:47;2.60;;;2.40;;
8139;SDS011;4111;50.972;7.072;2023-04-15T03:07:14;3.70;;;2.40;;
8139;SDS011;4111;50.972;7.072;2023-04-15T03:09:40;3.13;;;2.57;;
8139;SDS011;4111;50.972;7.072;2023-04-15T03:12:07;3.50;;;2.40;;
8139;SDS011;4111;50.972;7.072;2023-04-15T03:14:33;4.20;;;2.43;;
8139;SDS011;4111;50.972;7.072;2023-04-15T03:17:00;4.10;;;2.87;;
8139;SDS011;4111;50.972;7.072;2023-04-15T03:19:26;6.23;;;2.83;;
8139;SDS011;4111;50.972;7.072;2023-04-15T03:21:52;8.63;;;2.90;;
8139;SDS011;4111;50.972;7.072;2023-04-15T03:24:19;4.20;;;3.47;;
8139;SDS011;4111;50.972;7.072;2023-04-15T03:26:45;3.70;;;2.60;;
8139;SDS011;4111;50.972;7.072;2023-04-15T03:29:12;5.77;;;2.60;;
8139;SDS011;4111;50.972;7.072;2023-04-15T03:31:38;8.63;;;2.57;;
8139;SDS011;4111;50.972;7.072;2023-04-15T03:34:05;2.47;;;2.27;;
8139;SDS011;4111;50.972;7.072;2023-04-15T03:36:31;4.33;;;2.60;;
8139;SDS011;4111;50.972;7.072;2023-04-15T03:38:58;6.40;;;2.70;;
8139;SDS011;4111;50.972;7.072;2023-04-15T03:41:25;5.03;;;2.90;;
8139;SDS011;4111;50.972;7.072;2023-04-15T03:43:51;2.70;;;2.50;;
8139;SDS011;4111;50.972;7.072;2023-04-15T03:46:18;2.87;;;2.50;;
8139;SDS011;4111;50.972;7.072;2023-04-15T03:48:45;5.53;;;2.83;;
8139;SDS011;4111;50.972;7.072;2023-04-15T03:51:12;3.23;;;2.50;;
8139;SDS011;4111;50.972;7.072;2023-04-15T03:53:38;4.33;;;2.53;;
8139;SDS011;4111;50.972;7.072;2023-04-15T03:56:05;7.77;;;2.60;;
8139;SDS011;4111;50.972;7.072;2023-04-15T03:58:32;4.00;;;3.17;;
8139;SDS011;4111;50.972;7.072;2023-04-15T04:00:58;2.83;;;2.50;;
8139;SDS011;4111;50.972;7.072;2023-04-15T04:03:24;3.17;;;2.87;;
8139;SDS011;4111;50.972;7.072;2023-04-15T04:05:51;2.80;;;2.53;;
8139;SDS011;4111;50.972;7.072;2023-04-15T04:08:17;4.33;;;2.63;;
8139;SDS011;4111;50.972;7.072;2023-04-15T04:10:45;4.00;;;2.70;;
8139;SDS011;4111;50.972;7.072;2023-04-15T04:13:11;4.27;;;2.80;;
8139;SDS011;4111;50.972;7.072;2023-04-15T04:15:40;4.40;;;2.90;;
8139;SDS011;4111;50.972;7.072;2023-04-15T04:18:07;6.20;;;2.80;;
8139;SDS011;4111;50.972;7.072;2023-04-15T04:20:33;2.83;;;2.53;;
8139;SDS011;4111;50.972;7.072;2023-04-15T04:23:00;6.07;;;2.80;;
8139;SDS011;4111;50.972;7.072;2023-04-15T04:25:27;5.60;;;2.90;;
8139;SDS011;4111;50.972;7.072;2023-04-15T04:27:53;5.00;;;2.93;;
8139;SDS011;4111;50.972;7.072;2023-04-15T04:30:20;3.93;;;2.73;;
8139;SDS011;4111;50.972;7.072;2023-04-15T04:32:48;5.27;;;2.97;;
8139;SDS011;4111;50.972;7.072;2023-04-15T04:35:16;5.30;;;2.70;;
8139;SDS011;4111;50.972;7.072;2023-04-15T04:37:43;3.37;;;2.70;;
8139;SDS011;4111;50.972;7.072;2023-04-15T04:40:09;5.10;;;2.77;;
8139;SDS011;4111;50.972;7.072;2023-04-15T04:42:36;6.20;;;3.33;;
8139;SDS011;4111;50.972;7.072;2023-04-15T04:45:05;3.90;;;2.93;;
8139;SDS011;4111;50.972;7.072;2023-04-15T04:47:32;4.07;;;2.90;;
8139;SDS011;4111;50.972;7.072;2023-04-15T04:49:59;4.87;;;2.60;;
8139;SDS011;4111;50.972;7.072;2023-04-15T04:52:25;4.33;;;3.17;;
8139;SDS011;4111;50.972;7.072;2023-04-15T04:54:51;7.27;;;3.07;;
8139;SDS011;4111;50.972;7.072;2023-04-15T04:57:18;5.50;;;3.07;;
8139;SDS011;4111;50.972;7.072;2023-04-15T04:59:44;5.03;;;2.70;;
8139;SDS011;4111;50.972;7.072;2023-04-15T05:02:11;4.47;;;2.67;;
8139;SDS011;4111;50.972;7.072;2023-04-15T05:04:38;5.67;;;3.40;;
8139;SDS011;4111;50.972;7.072;2023-04-15T05:07:04;3.50;;;3.00;;
8139;SDS011;4111;50.972;7.072;2023-04-15T05:09:31;8.23;;;2.83;;
8139;SDS011;4111;50.972;7.072;2023-04-15T05:11:58;4.93;;;3.00;;
8139;SDS011;4111;50.972;7.072;2023-04-15T05:14:24;6.77;;;3.10;;
8139;SDS011;4111;50.972;7.072;2023-04-15T05:16:51;5.27;;;2.90;;
8139;SDS011;4111;50.972;7.072;2023-04-15T05:19:17;3.87;;;2.93;;
8139;SDS011;4111;50.972;7.072;2023-04-15T05:21:43;4.97;;;3.20;;
8139;SDS011;4111;50.972;7.072;2023-04-15T05:24:10;5.10;;;3.30;;
8139;SDS011;4111;50.972;7.072;2023-04-15T05:26:36;3.47;;;3.03;;
8139;SDS011;4111;50.972;7.072;2023-04-15T05:29:03;5.53;;;3.30;;
8139;SDS011;4111;50.972;7.072;2023-04-15T05:31:29;4.37;;;3.10;;
8139;SDS011;4111;50.972;7.072;2023-04-15T05:33:57;4.83;;;3.47;;
8139;SDS011;4111;50.972;7.072;2023-04-15T05:36:24;5.83;;;3.43;;
8139;SDS011;4111;50.972;7.072;2023-04-15T05:38:51;4.83;;;3.00;;
8139;SDS011;4111;50.972;7.072;2023-04-15T05:41:17;3.33;;;2.60;;
8139;SDS011;4111;50.972;7.072;2023-04-15T05:43:45;5.13;;;2.97;;
8139;SDS011;4111;50.972;7.072;2023-04-15T05:46:11;4.20;;;2.87;;
8139;SDS011;4111;50.972;7.072;2023-04-15T05:48:38;6.27;;;3.20;;
8139;SDS011;4111;50.972;7.072;2023-04-15T05:51:04;5.47;;;3.40;;
8139;SDS011;4111;50.972;7.072;2023-04-15T05:53:31;6.13;;;3.00;;
8139;SDS011;4111;50.972;7.072;2023-04-15T05:55:58;11.70;;;4.30;;
8139;SDS011;4111;50.972;7.072;2023-04-15T05:58:24;5.67;;;4.50;;
8139;SDS011;4111;50.972;7.072;2023-04-15T06:00:51;5.13;;;3.93;;
8139;SDS011;4111;50.972;7.072;2023-04-15T06:03:18;4.30;;;3.70;;
8139;SDS011;4111;50.972;7.072;2023-04-15T06:05:44;6.07;;;3.73;;
8139;SDS011;4111;50.972;7.072;2023-04-15T06:08:11;6.23;;;3.30;;
8139;SDS011;4111;50.972;7.072;2023-04-15T06:10:37;6.93;;;3.23;;
8139;SDS011;4111;50.972;7.072;2023-04-15T06:13:04;9.50;;;3.70;;
8139;SDS011;4111;50.972;7.072;2023-04-15T06:15:30;6.63;;;4.30;;
8139;SDS011;4111;50.972;7.072;2023-04-15T06:17:57;7.70;;;3.70;;
8139;SDS011;4111;50.972;7.072;2023-04-15T06:20:24;5.83;;;3.77;;
8139;SDS011;4111;50.972;7.072;2023-04-15T06:22:50;5.37;;;3.40;;
8139;SDS011;4111;50.972;7.072;2023-04-15T06:25:17;7.77;;;3.77;;
8139;SDS011;4111;50.972;7.072;2023-04-15T06:27:43;6.43;;;4.60;;
8139;SDS011;4111;50.972;7.072;2023-04-15T06:30:10;4.73;;;3.80;;
8139;SDS011;4111;50.972;7.072;2023-04-15T06:32:37;9.27;;;4.37;;
8139;SDS011;4111;50.972;7.072;2023-04-15T06:35:03;8.97;;;4.43;;
8139;SDS011;4111;50.972;7.072;2023-04-15T06:37:30;5.60;;;3.80;;
8139;SDS011;4111;50.972;7.072;2023-04-15T06:39:57;7.43;;;4.47;;
8139;SDS011;4111;50.972;7.072;2023-04-15T06:42:24;9.13;;;4.13;;
8139;SDS011;4111;50.972;7.072;2023-04-15T06:44:50;6.17;;;4.23;;
8139;SDS011;4111;50.972;7.072;2023-04-15T06:47:17;5.97;;;4.07;;
8139;SDS011;4111;50.972;7.072;2023-04-15T06:49:45;7.30;;;4.20;;
8139;SDS011;4111;50.972;7.072;2023-04-15T06:52:11;8.03;;;4.60;;
8139;SDS011;4111;50.972;7.072;2023-04-15T06:54:38;6.10;;;4.30;;
8139;SDS011;4111;50.972;7.072;2023-04-15T06:57:04;5.63;;;4.20;;
8139;SDS011;4111;50.972;7.072;2023-04-15T06:59:32;5.00;;;3.93;;
8139;SDS011;4111;50.972;7.072;2023-04-15T07:01:58;6.27;;;3.73;;
8139;SDS011;4111;50.972;7.072;2023-04-15T07:04:25;6.10;;;4.10;;
8139;SDS011;4111;50.972;7.072;2023-04-15T07:06:51;5.53;;;3.60;;
8139;SDS011;4111;50.972;7.072;2023-04-15T07:09:17;5.13;;;3.80;;
8139;SDS011;4111;50.972;7.072;2023-04-15T07:11:44;7.07;;;4.57;;
8139;SDS011;4111;50.972;7.072;2023-04-15T07:14:11;6.10;;;4.13;;
8139;SDS011;4111;50.972;7.072;2023-04-15T07:16:37;5.53;;;4.00;;
8139;SDS011;4111;50.972;7.072;2023-04-15T07:19:04;5.40;;;4.10;;
8139;SDS011;4111;50.972;7.072;2023-04-15T07:21:30;6.33;;;4.40;;
8139;SDS011;4111;50.972;7.072;2023-04-15T07:23:57;3.70;;;3.40;;
8139;SDS011;4111;50.972;7.072;2023-04-15T07:26:23;4.80;;;4.17;;
8139;SDS011;4111;50.972;7.072;2023-04-15T07:28:50;5.40;;;4.20;;
8139;SDS011;4111;50.972;7.072;2023-04-15T07:31:16;5.80;;;4.43;;
8139;SDS011;4111;50.972;7.072;2023-04-15T07:33:43;6.20;;;4.07;;
8139;SDS011;4111;50.972;7.072;2023-04-15T07:36:09;4.50;;;3.90;;
8139;SDS011;4111;50.972;7.072;2023-04-15T07:38:36;5.70;;;4.03;;
8139;SDS011;4111;50.972;7.072;2023-04-15T07:41:02;4.77;;;4.00;;
8139;SDS011;4111;50.972;7.072;2023-04-15T07:43:30;4.30;;;3.90;;
8139;SDS011;4111;50.972;7.072;2023-04-15T07:45:56;5.10;;;3.73;;
8139;SDS011;4111;50.972;7.072;2023-04-15T07:48:22;3.70;;;3.40;;
8139;SDS011;4111;50.972;7.072;2023-04-15T07:50:49;4.00;;;3.43;;
8139;SDS011;4111;50.972;7.072;2023-04-15T07:53:15;4.90;;;3.40;;
8139;SDS011;4111;50.972;7.072;2023-04-15T07:55:42;3.23;;;2.93;;
8139;SDS011;4111;50.972;7.072;2023-04-15T07:58:08;5.93;;;3.30;;
8139;SDS011;4111;50.972;7.072;2023-04-15T08:00:34;4.27;;;2.97;;
8139;SDS011;4111;50.972;7.072;2023-04-15T08:03:03;4.17;;;2.90;;
8139;SDS011;4111;50.972;7.072;2023-04-15T08:05:30;4.13;;;3.00;;
8139;SDS011;4111;50.972;7.072;2023-04-15T08:07:56;6.40;;;2.33;;
8139;SDS011;4111;50.972;7.072;2023-04-15T08:10:23;4.97;;;2.07;;
8139;SDS011;4111;50.972;7.072;2023-04-15T08:12:50;2.47;;;1.77;;
8139;SDS011;4111;50.972;7.072;2023-04-15T08:15:19;2.67;;;1.93;;
8139;SDS011;4111;50.972;7.072;2023-04-15T08:17:46;3.47;;;1.80;;
8139;SDS011;4111;50.972;7.072;2023-04-15T08:20:13;2.70;;;1.83;;
8139;SDS011;4111;50.972;7.072;2023-04-15T08:22:39;2.40;;;1.80;;
8139;SDS011;4111;50.972;7.072;2023-04-15T08:25:06;2.50;;;2.00;;
8139;SDS011;4111;50.972;7.072;2023-04-15T08:27:34;2.10;;;1.90;;
8139;SDS011;4111;50.972;7.072;2023-04-15T08:30:01;2.00;;;1.83;;
8139;SDS011;4111;50.972;7.072;2023-04-15T08:32:30;3.87;;;1.90;;
8139;SDS011;4111;50.972;7.072;2023-04-15T08:34:57;2.40;;;1.90;;
8139;SDS011;4111;50.972;7.072;2023-04-15T08:37:23;3.63;;;2.20;;
8139;SDS011;4111;50.972;7.072;2023-04-15T08:39:53;2.33;;;2.10;;
8139;SDS011;4111;50.972;7.072;2023-04-15T08:42:22;2.67;;;2.20;;
8139;SDS011;4111;50.972;7.072;2023-04-15T08:44:53;2.30;;;2.10;;
8139;SDS011;4111;50.972;7.072;2023-04-15T08:47:20;1.93;;;1.70;;
8139;SDS011;4111;50.972;7.072;2023-04-15T08:49:49;2.07;;;1.87;;
8139;SDS011;4111;50.972;7.072;2023-04-15T08:52:19;2.97;;;2.00;;
8139;SDS011;4111;50.972;7.072;2023-04-15T08:54:46;1.83;;;1.73;;
8139;SDS011;4111;50.972;7.072;2023-04-15T08:57:13;1.80;;;1.70;;
8139;SDS011;4111;50.972;7.072;2023-04-15T08:59:40;1.70;;;1.60;;
8139;SDS011;4111;50.972;7.072;2023-04-15T09:02:08;3.03;;;1.50;;
8139;SDS011;4111;50.972;7.072;2023-04-15T09:04:35;1.43;;;1.30;;
8139;SDS011;4111;50.972;7.072;2023-04-15T09:07:02;1.60;;;1.50;;
8139;SDS011;4111;50.972;7.072;2023-04-15T09:09:28;1.50;;;1.40;;
8139;SDS011;4111;50.972;7.072;2023-04-15T09:11:54;2.03;;;1.20;;
8139;SDS011;4111;50.972;7.072;2023-04-15T09:14:21;1.70;;;1.60;;
8139;SDS011;4111;50.972;7.072;2023-04-15T09:16:55;1.80;;;1.70;;
8139;SDS011;4111;50.972;7.072;2023-04-15T09:19:29;1.90;;;1.80;;
8139;SDS011;4111;50.972;7.072;2023-04-15T09:21:57;3.17;;;2.03;;
8139;SDS011;4111;50.972;7.072;2023-04-15T09:24:25;1.80;;;1.70;;
8139;SDS011;4111;50.972;7.072;2023-04-15T09:26:58;2.23;;;2.00;;
8139;SDS011;4111;50.972;7.072;2023-04-15T09:29:25;1.93;;;1.83;;
8139;SDS011;4111;50.972;7.072;2023-04-15T09:31:52;2.00;;;1.80;;
8139;SDS011;4111;50.972;7.072;2023-04-15T09:34:18;2.97;;;2.10;;
8139;SDS011;4111;50.972;7.072;2023-04-15T09:39:12;2.40;;;2.20;;
8139;SDS011;4111;50.972;7.072;2023-04-15T09:41:39;2.57;;;2.37;;
8139;SDS011;4111;50.972;7.072;2023-04-15T09:44:06;2.30;;;2.20;;
8139;SDS011;4111;50.972;7.072;2023-04-15T09:46:42;1.93;;;1.83;;
8139;SDS011;4111;50.972;7.072;2023-04-15T09:49:09;2.27;;;1.77;;
8139;SDS011;4111;50.972;7.072;2023-04-15T09:51:37;2.17;;;1.97;;
8139;SDS011;4111;50.972;7.072;2023-04-15T09:54:04;3.27;;;1.93;;
8139;SDS011;4111;50.972;7.072;2023-04-15T09:56:31;2.13;;;1.50;;
8139;SDS011;4111;50.972;7.072;2023-04-15T09:59:01;1.77;;;1.63;;
8139;SDS011;4111;50.972;7.072;2023-04-15T10:01:27;2.10;;;1.93;;
8139;SDS011;4111;50.972;7.072;2023-04-15T10:03:54;2.33;;;1.40;;
8139;SDS011;4111;50.972;7.072;2023-04-15T10:06:24;1.80;;;1.70;;
8139;SDS011;4111;50.972;7.072;2023-04-15T10:08:52;1.83;;;1.70;;
8139;SDS011;4111;50.972;7.072;2023-04-15T10:11:19;2.50;;;2.10;;
8139;SDS011;4111;50.972;7.072;2023-04-15T10:13:49;10.13;;;8.40;;
8139;SDS011;4111;50.972;7.072;2023-04-15T10:16:18;2.83;;;2.30;;
8139;SDS011;4111;50.972;7.072;2023-04-15T10:18:47;3.00;;;2.70;;
8139;SDS011;4111;50.972;7.072;2023-04-15T10:21:18;2.63;;;2.43;;
8139;SDS011;4111;50.972;7.072;2023-04-15T10:23:46;3.00;;;2.80;;
8139;SDS011;4111;50.972;7.072;2023-04-15T10:26:13;2.70;;;2.50;;
8139;SDS011;4111;50.972;7.072;2023-04-15T10:28:40;5.80;;;2.43;;
8139;SDS011;4111;50.972;7.072;2023-04-15T10:31:07;2.50;;;2.40;;
8139;SDS011;4111;50.972;7.072;2023-04-15T10:33:37;2.63;;;2.43;;
8139;SDS011;4111;50.972;7.072;2023-04-15T10:36:04;2.47;;;2.37;;
8139;SDS011;4111;50.972;7.072;2023-04-15T10:38:33;2.60;;;2.40;;
8139;SDS011;4111;50.972;7.072;2023-04-15T10:41:24;2.10;;;2.00;;
8139;SDS011;4111;50.972;7.072;2023-04-15T10:46:41;2.90;;;2.70;;
8139;SDS011;4111;50.972;7.072;2023-04-15T10:49:16;2.50;;;2.30;;
8139;SDS011;4111;50.972;7.072;2023-04-15T10:51:56;2.50;;;2.37;;
8139;SDS011;4111;50.972;7.072;2023-04-15T10:56:51;2.60;;;2.40;;
8139;SDS011;4111;50.972;7.072;2023-04-15T10:59:35;2.40;;;2.30;;
8139;SDS011;4111;50.972;7.072;2023-04-15T11:02:04;3.50;;;3.03;;
8139;SDS011;4111;50.972;7.072;2023-04-15T11:12:39;2.37;;;2.27;;
8139;SDS011;4111;50.972;7.072;2023-04-15T11:17:56;3.67;;;2.60;;
8139;SDS011;4111;50.972;7.072;2023-04-15T11:20:24;2.23;;;2.10;;
8139;SDS011;4111;50.972;7.072;2023-04-15T11:22:51;2.30;;;2.20;;
8139;SDS011;4111;50.972;7.072;2023-04-15T11:25:39;2.30;;;2.20;;
8139;SDS011;4111;50.972;7.072;2023-04-15T11:28:06;3.17;;;2.20;;
8139;SDS011;4111;50.972;7.072;2023-04-15T11:30:35;2.30;;;2.20;;
8139;SDS011;4111;50.972;7.072;2023-04-15T11:33:03;2.50;;;2.40;;
8139;SDS011;4111;50.972;7.072;2023-04-15T11:35:31;2.37;;;2.27;;
8139;SDS011;4111;50.972;7.072;2023-04-15T11:38:01;2.53;;;2.33;;
8139;SDS011;4111;50.972;7.072;2023-04-15T11:40:29;2.37;;;2.00;;
8139;SDS011;4111;50.972;7.072;2023-04-15T11:43:30;2.30;;;2.20;;
8139;SDS011;4111;50.972;7.072;2023-04-15T11:48:30;2.10;;;2.00;;
8139;SDS011;4111;50.972;7.072;2023-04-15T11:50:59;2.40;;;2.30;;
8139;SDS011;4111;50.972;7.072;2023-04-15T11:53:42;2.30;;;2.20;;
8139;SDS011;4111;50.972;7.072;2023-04-15T11:56:17;2.07;;;1.97;;
8139;SDS011;4111;50.972;7.072;2023-04-15T11:58:43;2.30;;;2.20;;
8139;SDS011;4111;50.972;7.072;2023-04-15T12:01:11;2.17;;;2.07;;
8139;SDS011;4111;50.972;7.072;2023-04-15T12:03:39;3.10;;;2.27;;
8139;SDS011;4111;50.972;7.072;2023-04-15T12:09:00;2.00;;;1.90;;
8139;SDS011;4111;50.972;7.072;2023-04-15T12:11:30;2.37;;;2.27;;
8139;SDS011;4111;50.972;7.072;2023-04-15T12:16:41;2.70;;;2.50;;
8139;SDS011;4111;50.972;7.072;2023-04-15T12:19:17;2.47;;;2.27;;
8139;SDS011;4111;50.972;7.072;2023-04-15T12:21:47;3.30;;;2.20;;
8139;SDS011;4111;50.972;7.072;2023-04-15T12:24:14;2.30;;;2.10;;
8139;SDS011;4111;50.972;7.072;2023-04-15T12:26:50;2.43;;;2.20;;
8139;SDS011;4111;50.972;7.072;2023-04-15T12:29:19;2.23;;;2.13;;
8139;SDS011;4111;50.972;7.072;2023-04-15T12:31:53;2.23;;;2.13;;
8139;SDS011;4111;50.972;7.072;2023-04-15T12:34:28;2.33;;;2.20;;
8139;SDS011;4111;50.972;7.072;2023-04-15T12:36:59;2.93;;;2.70;;
8139;SDS011;4111;50.972;7.072;2023-04-15T12:39:29;2.70;;;2.50;;
8139;SDS011;4111;50.972;7.072;2023-04-15T12:41:58;2.97;;;2.70;;
8139;SDS011;4111;50.972;7.072;2023-04-15T12:44:26;2.30;;;2.20;;
8139;SDS011;4111;50.972;7.072;2023-04-15T12:46:53;4.60;;;2.60;;
8139;SDS011;4111;50.972;7.072;2023-04-15T12:49:20;2.90;;;2.70;;
8139;SDS011;4111;50.972;7.072;2023-04-15T12:51:47;2.97;;;2.77;;
8139;SDS011;4111;50.972;7.072;2023-04-15T12:54:18;3.20;;;3.00;;
8139;SDS011;4111;50.972;7.072;2023-04-15T12:56:45;5.20;;;3.43;;
8139;SDS011;4111;50.972;7.072;2023-04-15T12:59:13;3.23;;;2.70;;
8139;SDS011;4111;50.972;7.072;2023-04-15T13:01:40;2.90;;;2.70;;
8139;SDS011;4111;50.972;7.072;2023-04-15T13:04:07;3.07;;;2.87;;
8139;SDS011;4111;50.972;7.072;2023-04-15T13:06:34;2.80;;;2.70;;
8139;SDS011;4111;50.972;7.072;2023-04-15T13:09:01;3.90;;;3.50;;
8139;SDS011;4111;50.972;7.072;2023-04-15T13:11:31;5.57;;;3.47;;
8139;SDS011;4111;50.972;7.072;2023-04-15T13:13:59;5.00;;;3.40;;
8139;SDS011;4111;50.972;7.072;2023-04-15T13:16:27;3.50;;;3.30;;
8139;SDS011;4111;50.972;7.072;2023-04-15T13:18:53;5.20;;;4.00;;
8139;SDS011;4111;50.972;7.072;2023-04-15T13:21:20;4.57;;;3.97;;
8139;SDS011;4111;50.972;7.072;2023-04-15T13:23:47;4.67;;;4.37;;
8139;SDS011;4111;50.972;7.072;2023-04-15T13:26:14;4.30;;;3.97;;
8139;SDS011;4111;50.972;7.072;2023-04-15T13:28:41;4.83;;;4.43;;
8139;SDS011;4111;50.972;7.072;2023-04-15T13:31:07;4.87;;;4.53;;
8139;SDS011;4111;50.972;7.072;2023-04-15T13:33:34;4.17;;;3.87;;
8139;SDS011;4111;50.972;7.072;2023-04-15T13:36:00;5.67;;;5.20;;
8139;SDS011;4111;50.972;7.072;2023-04-15T13:38:27;5.23;;;4.87;;
8139;SDS011;4111;50.972;7.072;2023-04-15T13:40:53;5.80;;;5.30;;
8139;SDS011;4111;50.972;7.072;2023-04-15T13:43:20;6.53;;;5.43;;
8139;SDS011;4111;50.972;7.072;2023-04-15T13:45:46;5.53;;;5.13;;
8139;SDS011;4111;50.972;7.072;2023-04-15T13:48:13;5.37;;;4.97;;
8139;SDS011;4111;50.972;7.072;2023-04-15T13:50:39;5.03;;;4.63;;
8139;SDS011;4111;50.972;7.072;2023-04-15T13:53:10;6.10;;;5.57;;
8139;SDS011;4111;50.972;7.072;2023-04-15T13:55:38;6.27;;;5.77;;
8139;SDS011;4111;50.972;7.072;2023-04-15T13:58:08;6.73;;;6.13;;
8139;SDS011;4111;50.972;7.072;2023-04-15T14:00:35;6.40;;;5.90;;
8139;SDS011;4111;50.972;7.072;2023-04-15T14:03:01;6.87;;;6.27;;
8139;SDS011;4111;50.972;7.072;2023-04-15T14:05:28;7.00;;;6.30;;
8139;SDS011;4111;50.972;7.072;2023-04-15T14:07:55;6.70;;;6.20;;
8139;SDS011;4111;50.972;7.072;2023-04-15T14:10:21;8.07;;;7.27;;
8139;SDS011;4111;50.972;7.072;2023-04-15T14:12:48;6.33;;;5.83;;
8139;SDS011;4111;50.972;7.072;2023-04-15T14:15:14;6.57;;;6.07;;
8139;SDS011;4111;50.972;7.072;2023-04-15T14:17:41;6.47;;;5.97;;
8139;SDS011;4111;50.972;7.072;2023-04-15T14:20:08;7.37;;;6.70;;
8139;SDS011;4111;50.972;7.072;2023-04-15T14:22:34;6.10;;;5.50;;
8139;SDS011;4111;50.972;7.072;2023-04-15T14:25:01;5.90;;;5.40;;
8139;SDS011;4111;50.972;7.072;2023-04-15T14:27:27;5.97;;;5.47;;
8139;SDS011;4111;50.972;7.072;2023-04-15T14:29:54;5.90;;;5.43;;
8139;SDS011;4111;50.972;7.072;2023-04-15T14:32:20;5.60;;;5.07;;
8139;SDS011;4111;50.972;7.072;2023-04-15T14:34:47;5.77;;;5.37;;
8139;SDS011;4111;50.972;7.072;2023-04-15T14:37:13;5.60;;;5.20;;
8139;SDS011;4111;50.972;7.072;2023-04-15T14:39:39;5.10;;;4.70;;
8139;SDS011;4111;50.972;7.072;2023-04-15T14:42:06;5.20;;;4.70;;
8139;SDS011;4111;50.972;7.072;2023-04-15T14:44:32;4.77;;;4.37;;
8139;SDS011;4111;50.972;7.072;2023-04-15T14:46:59;4.83;;;4.53;;
8139;SDS011;4111;50.972;7.072;2023-04-15T14:49:25;4.20;;;3.90;;
8139;SDS011;4111;50.972;7.072;2023-04-15T14:51:52;4.10;;;3.70;;
8139;SDS011;4111;50.972;7.072;2023-04-15T14:54:18;4.13;;;3.83;;
8139;SDS011;4111;50.972;7.072;2023-04-15T14:56:47;3.63;;;3.33;;
8139;SDS011;4111;50.972;7.072;2023-04-15T14:59:13;3.93;;;3.63;;
8139;SDS011;4111;50.972;7.072;2023-04-15T15:01:40;4.00;;;3.40;;
8139;SDS011;4111;50.972;7.072;2023-04-15T15:04:06;4.00;;;3.60;;
8139;SDS011;4111;50.972;7.072;2023-04-15T15:06:35;4.20;;;3.77;;
8139;SDS011;4111;50.972;7.072;2023-04-15T15:09:02;3.77;;;3.43;;
8139;SDS011;4111;50.972;7.072;2023-04-15T15:11:29;3.33;;;3.13;;
8139;SDS011;4111;50.972;7.072;2023-04-15T15:13:55;4.10;;;3.70;;
8139;SDS011;4111;50.972;7.072;2023-04-15T15:16:22;3.80;;;3.43;;
8139;SDS011;4111;50.972;7.072;2023-04-15T15:18:49;4.77;;;3.33;;
8139;SDS011;4111;50.972;7.072;2023-04-15T15:21:16;3.50;;;3.20;;
8139;SDS011;4111;50.972;7.072;2023-04-15T15:23:43;3.80;;;3.43;;
8139;SDS011;4111;50.972;7.072;2023-04-15T15:26:10;3.70;;;3.40;;
8139;SDS011;4111;50.972;7.072;2023-04-15T15:28:37;3.57;;;3.27;;
8139;SDS011;4111;50.972;7.072;2023-04-15T15:31:03;3.77;;;3.30;;
8139;SDS011;4111;50.972;7.072;2023-04-15T15:33:30;3.70;;;3.40;;
8139;SDS011;4111;50.972;7.072;2023-04-15T15:35:57;3.40;;;3.20;;
8139;SDS011;4111;50.972;7.072;2023-04-15T15:38:24;3.70;;;3.40;;
8139;SDS011;4111;50.972;7.072;2023-04-15T15:40:51;3.63;;;3.27;;
8139;SDS011;4111;50.972;7.072;2023-04-15T15:43:17;4.37;;;3.97;;